Time;durP1;ratioP1;P1;durP2;ratioP2;P2;SDS_P1;SDS_P2;PMS_P1;PMS_P2;Temp;Humidity;BMP_temperature;BMP_pressure;BME280_temperature;BME280_humidity;BME280_pressure;Samples;Min_cycle;Max_cycle;Signal;HPM_P1;HPM_P2
2023/04/04 00:01:32;;;;;;;3.88;1.30;;;2.40;99.90;;;;;;6265282;22;20438;-80
2023/04/04 00:03:58;;;;;;;3.42;1.35;;;2.40;99.90;;;;;;6264913;22;20096;-79
2023/04/04 00:06:23;;;;;;;2.35;0.98;;;2.40;99.90;;;;;;6400930;22;20021;-82
2023/04/04 00:08:49;;;;;;;3.45;1.05;;;2.40;99.90;;;;;;6265960;22;20022;-80
2023/04/04 00:11:15;;;;;;;5.20;2.33;;;2.30;99.90;;;;;;6400860;22;20022;-80
2023/04/04 00:13:40;;;;;;;7.57;2.33;;;2.30;99.90;;;;;;6239841;22;20105;-82
2023/04/04 00:16:06;;;;;;;5.05;1.70;;;2.30;99.90;;;;;;6400911;22;20085;-80
2023/04/04 00:18:33;;;;;;;4.63;1.30;;;2.30;99.90;;;;;;6400994;22;20025;-80
2023/04/04 00:20:59;;;;;;;;;;;2.30;99.90;;;;;;6401589;22;20343;-80
2023/04/04 00:23:25;;;;;;;4.00;1.40;;;2.30;99.90;;;;;;6239792;22;19977;-82
2023/04/04 00:25:53;;;;;;;4.18;1.33;;;2.30;99.90;;;;;;6400483;22;20025;-82
2023/04/04 00:28:20;;;;;;;3.15;1.15;;;2.30;99.90;;;;;;6264715;22;20089;-82
2023/04/04 00:30:46;;;;;;;2.90;1.10;;;2.30;99.90;;;;;;6264673;22;20017;-81
2023/04/04 00:33:15;;;;;;;4.65;1.30;;;2.20;99.90;;;;;;6264678;22;20017;-81
2023/04/04 00:35:41;;;;;;;3.30;1.25;;;2.10;99.90;;;;;;6402567;22;20104;-81
2023/04/04 00:38:07;;;;;;;3.45;1.40;;;2.00;99.90;;;;;;6265997;22;20037;-80
2023/04/04 00:40:46;;;;;;;2.15;1.00;;;2.00;99.90;;;;;;6266147;22;20043;-80
2023/04/04 00:43:13;;;;;;;3.83;1.23;;;1.90;99.90;;;;;;6267043;22;20014;-80
2023/04/04 00:45:40;;;;;;;3.75;1.25;;;1.90;99.90;;;;;;6266120;22;20014;-80
2023/04/04 00:48:06;;;;;;;4.60;1.67;;;1.80;99.90;;;;;;6266076;22;20105;-81
2023/04/04 00:50:31;;;;;;;4.90;1.73;;;1.80;99.90;;;;;;6402414;22;20028;-80
2023/04/04 00:52:57;;;;;;;6.85;2.85;;;1.70;99.90;;;;;;6402581;22;20009;-80
2023/04/04 00:55:24;;;;;;;4.93;1.80;;;1.70;99.90;;;;;;6266105;22;20025;-79
2023/04/04 00:57:50;;;;;;;5.70;2.10;;;1.60;99.90;;;;;;6401444;22;20010;-79
2023/04/04 01:00:16;;;;;;;4.95;1.73;;;1.60;99.90;;;;;;6402532;22;20009;-81
2023/04/04 01:02:42;;;;;;;3.57;1.40;;;1.60;99.90;;;;;;6266875;22;20120;-80
2023/04/04 01:05:08;;;;;;;3.97;1.60;;;1.60;99.90;;;;;;6402449;22;20088;-79
2023/04/04 01:07:35;;;;;;;4.22;1.52;;;1.60;99.90;;;;;;6266037;22;20097;-79
2023/04/04 01:10:02;;;;;;;5.55;1.77;;;1.50;99.90;;;;;;6265669;22;20013;-79
2023/04/04 01:12:29;;;;;;;5.00;1.70;;;1.50;99.90;;;;;;6402505;22;20014;-79
2023/04/04 01:14:56;;;;;;;5.10;1.55;;;1.50;99.90;;;;;;6265389;22;20060;-79
2023/04/04 01:17:23;;;;;;;3.75;1.90;;;1.40;99.90;;;;;;6240852;22;20014;-80
2023/04/04 01:20:14;;;;;;;5.88;1.70;;;1.40;99.90;;;;;;6266089;22;20050;-79
2023/04/04 01:22:41;;;;;;;4.47;1.60;;;1.30;99.90;;;;;;6266172;22;20020;-80
2023/04/04 01:25:07;;;;;;;3.47;1.50;;;1.30;99.90;;;;;;6266152;22;20030;-81
2023/04/04 01:27:33;;;;;;;3.38;1.50;;;1.30;99.90;;;;;;6267078;22;20066;-80
2023/04/04 01:30:00;;;;;;;4.53;2.05;;;1.20;99.90;;;;;;6265782;22;20017;-80
2023/04/04 01:32:25;;;;;;;4.22;1.52;;;1.20;99.90;;;;;;6266002;22;20014;-80
2023/04/04 01:35:09;;;;;;;5.13;1.85;;;1.20;99.90;;;;;;6265997;22;20052;-80
2023/04/04 01:37:49;;;;;;;4.18;2.03;;;1.10;99.90;;;;;;6402619;22;20132;-79
2023/04/04 01:40:22;;;;;;;3.95;1.70;;;1.10;99.90;;;;;;6265814;22;20018;-80
2023/04/04 01:42:50;;;;;;;4.10;1.70;;;1.10;99.90;;;;;;6402143;22;20093;-80
2023/04/04 01:45:16;;;;;;;4.28;1.52;;;1.10;99.90;;;;;;6265688;22;20415;-80
2023/04/04 01:47:42;;;;;;;6.22;1.85;;;1.10;99.90;;;;;;6401681;22;20085;-81
2023/04/04 01:50:10;;;;;;;4.15;1.90;;;1.00;99.90;;;;;;6402114;22;20021;-81
2023/04/04 01:52:37;;;;;;;5.65;2.10;;;1.00;99.90;;;;;;6402163;22;20022;-81
2023/04/04 01:55:03;;;;;;;4.28;1.60;;;0.90;99.90;;;;;;6402111;22;20014;-80
2023/04/04 01:57:29;;;;;;;5.50;1.85;;;0.90;99.90;;;;;;6401850;22;20014;-80
2023/04/04 01:59:55;;;;;;;6.65;1.85;;;0.90;99.90;;;;;;6401948;22;20458;-80
2023/04/04 02:02:21;;;;;;;5.20;2.00;;;0.80;99.90;;;;;;6266792;22;20047;-80
2023/04/04 02:04:47;;;;;;;5.93;1.60;;;0.80;99.90;;;;;;6265841;22;20010;-80
2023/04/04 02:07:13;;;;;;;3.70;1.60;;;0.70;99.90;;;;;;6401944;22;20092;-79
2023/04/04 02:09:39;;;;;;;4.13;1.77;;;0.70;99.90;;;;;;6265729;22;20239;-81
2023/04/04 02:12:05;;;;;;;4.13;1.60;;;0.70;99.90;;;;;;6266383;22;20354;-79
2023/04/04 02:14:31;;;;;;;4.10;1.80;;;0.70;99.90;;;;;;6265728;22;20038;-79
2023/04/04 02:16:57;;;;;;;5.28;2.05;;;0.70;99.90;;;;;;6265980;22;20022;-80
2023/04/04 02:19:23;;;;;;;4.47;1.77;;;0.70;99.90;;;;;;6400850;22;20063;-82
2023/04/04 02:21:49;;;;;;;5.38;1.48;;;0.70;99.90;;;;;;6266693;22;20036;-79
2023/04/04 02:24:15;;;;;;;5.40;1.80;;;0.80;99.90;;;;;;6401677;22;20113;-79
2023/04/04 02:26:40;;;;;;;3.88;2.00;;;0.70;99.90;;;;;;6265560;22;20312;-81
2023/04/04 02:29:06;;;;;;;4.75;2.00;;;0.70;99.90;;;;;;6401561;22;20334;-82
2023/04/04 02:31:32;;;;;;;5.55;1.63;;;0.70;99.90;;;;;;6263653;22;20022;-80
2023/04/04 02:33:58;;;;;;;3.83;1.58;;;0.70;99.90;;;;;;6399656;22;20016;-81
2023/04/04 02:36:24;;;;;;;4.80;1.83;;;0.80;99.90;;;;;;6266496;22;20104;-81
2023/04/04 02:38:52;;;;;;;4.65;1.65;;;0.90;99.90;;;;;;6401382;22;20073;-80
2023/04/04 02:41:18;;;;;;;4.95;2.00;;;0.90;99.90;;;;;;6265188;22;20462;-80
2023/04/04 02:43:44;;;;;;;3.85;1.67;;;0.80;99.90;;;;;;6265171;22;20035;-80
2023/04/04 02:46:09;;;;;;;6.07;1.47;;;0.80;99.90;;;;;;6240137;22;20014;-80
2023/04/04 02:48:35;;;;;;;3.35;1.38;;;0.80;99.90;;;;;;6401483;22;20154;-81
2023/04/04 02:51:01;;;;;;;4.93;1.65;;;0.80;99.90;;;;;;6265128;22;20024;-80
2023/04/04 02:53:28;;;;;;;4.78;1.35;;;0.80;99.90;;;;;;6265712;22;20089;-81
2023/04/04 02:55:54;;;;;;;4.88;2.00;;;0.80;99.90;;;;;;6265232;22;20010;-80
2023/04/04 02:58:20;;;;;;;4.22;1.48;;;0.80;99.90;;;;;;6265707;22;20333;-81
2023/04/04 03:00:52;;;;;;;3.37;1.33;;;0.80;99.90;;;;;;6265582;22;20122;-80
2023/04/04 03:03:17;;;;;;;3.92;1.60;;;0.80;99.90;;;;;;6241266;22;20068;-81
2023/04/04 03:05:43;;;;;;;5.72;1.30;;;0.80;99.90;;;;;;6401102;22;20031;-82
2023/04/04 03:08:09;;;;;;;4.07;1.88;;;0.70;99.90;;;;;;6264970;22;20066;-81
2023/04/04 03:10:34;;;;;;;3.58;1.52;;;0.60;99.90;;;;;;6264689;22;20014;-81
2023/04/04 03:13:00;;;;;;;5.00;1.73;;;0.60;99.90;;;;;;6265974;22;20434;-80
2023/04/04 03:15:26;;;;;;;4.07;1.45;;;0.50;99.90;;;;;;6401310;22;20045;-77
2023/04/04 03:17:52;;;;;;;4.03;1.87;;;0.40;99.90;;;;;;6240284;22;20327;-79
2023/04/04 03:20:18;;;;;;;4.72;1.40;;;0.40;99.90;;;;;;6239975;22;20021;-81
2023/04/04 03:22:44;;;;;;;3.65;1.75;;;0.40;99.90;;;;;;6264680;22;20013;-79
2023/04/04 03:25:10;;;;;;;3.88;1.67;;;0.40;99.90;;;;;;6239657;22;20381;-80
2023/04/04 03:27:38;;;;;;;4.50;1.60;;;0.40;99.90;;;;;;6241080;22;20109;-81
2023/04/04 03:30:05;;;;;;;4.30;1.60;;;0.30;99.90;;;;;;6241270;22;20013;-82
2023/04/04 03:32:31;;;;;;;4.38;1.58;;;0.40;99.90;;;;;;6264864;22;20018;-80
2023/04/04 03:34:57;;;;;;;5.15;1.90;;;0.40;99.90;;;;;;6265185;22;20479;-81
2023/04/04 03:37:23;;;;;;;4.80;1.92;;;0.40;99.90;;;;;;6264848;22;20137;-80
2023/04/04 03:39:49;;;;;;;4.13;1.70;;;0.40;99.90;;;;;;6265137;22;20384;-82
2023/04/04 03:42:14;;;;;;;4.68;1.67;;;0.30;99.90;;;;;;6400911;22;20038;-80
2023/04/04 03:44:41;;;;;;;4.72;1.92;;;0.30;99.90;;;;;;6401809;22;20045;-80
2023/04/04 03:47:06;;;;;;;6.97;1.85;;;0.30;99.90;;;;;;6265370;22;20071;-80
2023/04/04 03:49:33;;;;;;;4.60;1.80;;;0.20;99.90;;;;;;6265188;22;20017;-80
2023/04/04 03:51:59;;;;;;;3.85;1.60;;;0.20;99.90;;;;;;6266202;22;20029;-82
2023/04/04 03:54:27;;;;;;;3.92;1.90;;;0.20;99.90;;;;;;6264993;22;20014;-81
2023/04/04 03:56:53;;;;;;;4.28;2.38;;;0.20;99.90;;;;;;6265799;22;20092;-81
2023/04/04 03:59:18;;;;;;;5.13;1.60;;;0.20;99.90;;;;;;6264781;22;20010;-80
2023/04/04 04:01:44;;;;;;;4.28;1.73;;;0.20;99.90;;;;;;6213932;22;20044;-80
2023/04/04 04:04:10;;;;;;;3.92;2.10;;;0.20;99.90;;;;;;6264695;22;20029;-81
2023/04/04 04:06:36;;;;;;;4.32;1.63;;;0.20;99.90;;;;;;6264889;22;20026;-81
2023/04/04 04:09:02;;;;;;;6.65;1.80;;;0.20;99.90;;;;;;6266338;22;20020;-81
2023/04/04 04:11:28;;;;;;;4.93;1.90;;;0.20;99.90;;;;;;6266136;22;20464;-80
2023/04/04 04:13:54;;;;;;;4.70;1.88;;;0.30;99.90;;;;;;6403074;22;20116;-80
2023/04/04 04:16:21;;;;;;;4.60;1.63;;;0.30;99.90;;;;;;6402879;22;20024;-80
2023/04/04 04:18:47;;;;;;;3.60;1.48;;;0.40;99.90;;;;;;6402498;22;20282;-80
2023/04/04 04:21:12;;;;;;;6.00;1.87;;;0.40;99.90;;;;;;6266215;22;20013;-80
2023/04/04 04:23:38;;;;;;;4.07;1.73;;;0.50;99.90;;;;;;6264998;22;20014;-81
2023/04/04 04:26:05;;;;;;;5.43;2.40;;;0.50;99.90;;;;;;6267027;22;20098;-80
2023/04/04 04:28:31;;;;;;;4.55;1.83;;;0.60;99.90;;;;;;6266053;22;20500;-80
2023/04/04 04:31:06;;;;;;;5.13;1.63;;;0.50;99.90;;;;;;6240790;22;20018;-80
2023/04/04 04:33:32;;;;;;;3.97;1.75;;;0.50;99.90;;;;;;6266090;22;20018;-81
2023/04/04 04:36:02;;;;;;;3.70;1.63;;;0.50;99.90;;;;;;6402442;22;20020;-82
2023/04/04 04:38:28;;;;;;;4.47;1.67;;;0.50;99.90;;;;;;6402637;22;20125;-80
2023/04/04 04:40:55;;;;;;;4.70;1.67;;;0.50;99.90;;;;;;6401999;22;20501;-80
2023/04/04 04:43:23;;;;;;;5.43;1.73;;;0.50;99.90;;;;;;6402289;22;20381;-81
2023/04/04 04:45:53;;;;;;;4.85;2.00;;;0.60;99.90;;;;;;6402664;22;20350;-82
2023/04/04 04:48:19;;;;;;;;;;;0.60;99.90;;;;;;6269478;22;20139;-80
2023/04/04 04:50:46;;;;;;;4.35;1.80;;;0.60;99.90;;;;;;6267749;22;20341;-81
2023/04/04 04:53:15;;;;;;;4.78;2.17;;;0.60;99.90;;;;;;6266599;22;20067;-79
2023/04/04 04:55:41;;;;;;;2.80;1.48;;;0.60;99.90;;;;;;6266399;22;20014;-80
2023/04/04 04:58:09;;;;;;;4.55;1.70;;;0.60;99.90;;;;;;6402965;22;20066;-80
2023/04/04 05:00:36;;;;;;;5.35;1.40;;;0.60;99.90;;;;;;6401271;22;20010;-81
2023/04/04 05:03:05;;;;;;;4.18;1.67;;;0.60;99.90;;;;;;6265609;22;20018;-82
2023/04/04 05:05:35;;;;;;;5.13;2.28;;;0.60;99.90;;;;;;6242191;22;20100;-85
2023/04/04 05:08:01;;;;;;;3.88;1.52;;;0.60;99.90;;;;;;6217397;22;20014;-85
2023/04/04 05:10:27;;;;;;;5.85;2.35;;;0.60;99.90;;;;;;6241298;22;20431;-89
2023/04/04 05:12:53;;;;;;;4.37;1.43;;;0.60;99.90;;;;;;6191573;22;20443;-84
2023/04/04 05:15:20;;;;;;;3.33;1.42;;;0.60;99.90;;;;;;6266633;22;20236;-85
2023/04/04 05:17:45;;;;;;;4.22;1.52;;;0.60;99.90;;;;;;6268050;22;20079;-90
2023/04/04 05:20:11;;;;;;;4.53;1.30;;;0.60;99.90;;;;;;6267194;22;20447;-92
2023/04/04 05:22:44;;;;;;;3.58;1.33;;;0.60;99.90;;;;;;6267280;22;20045;-89
2023/04/04 05:25:11;;;;;;;3.88;1.20;;;0.60;99.90;;;;;;6404052;22;20020;-89
2023/04/04 05:27:37;;;;;;;3.20;1.30;;;0.60;99.90;;;;;;6240492;22;20339;-86
2023/04/04 05:30:03;;;;;;;2.47;1.13;;;0.50;99.90;;;;;;6217298;22;20017;-88
2023/04/04 05:32:29;;;;;;;9.20;1.80;;;0.60;99.90;;;;;;6218279;22;20014;-88
2023/04/04 05:35:04;;;;;;;4.47;1.52;;;0.60;99.90;;;;;;6243102;22;20013;-87
2023/04/04 05:37:30;;;;;;;4.45;1.85;;;0.60;99.90;;;;;;6241621;22;20018;-87
2023/04/04 05:39:56;;;;;;;4.05;1.40;;;0.70;99.90;;;;;;6242379;22;20024;-86
2023/04/04 05:42:22;;;;;;;5.13;2.03;;;0.70;99.90;;;;;;6217695;22;20101;-87
2023/04/04 05:44:47;;;;;;;4.32;1.80;;;0.70;99.90;;;;;;6217405;22;20518;-88
2023/04/04 05:47:42;;;;;;;5.88;2.10;;;0.70;99.90;;;;;;6243644;22;20096;-88
2023/04/04 05:50:23;;;;;;;4.85;2.08;;;0.80;99.90;;;;;;6242903;22;20051;-86
2023/04/04 05:52:53;;;;;;;4.97;1.67;;;0.90;99.90;;;;;;6241863;22;20018;-86
2023/04/04 05:55:18;;;;;;;5.22;1.52;;;0.90;99.90;;;;;;6241581;22;20018;-86
2023/04/04 05:57:48;;;;;;;3.85;1.65;;;0.90;99.90;;;;;;6191610;22;20014;-87
2023/04/04 06:00:29;;;;;;;4.70;1.48;;;0.90;99.90;;;;;;6242595;22;20056;-87
2023/04/04 06:02:57;;;;;;;6.35;1.80;;;0.90;99.90;;;;;;6242933;22;20010;-93
2023/04/04 06:07:59;;;;;;;7.22;1.90;;;0.80;99.90;;;;;;6409767;22;20018;-92
2023/04/04 06:10:25;;;;;;;4.47;1.70;;;0.70;99.90;;;;;;6272215;22;20018;-95
2023/04/04 06:12:50;;;;;;;4.40;1.65;;;0.70;99.90;;;;;;6244656;22;20018;-94
2023/04/04 06:15:16;;;;;;;2.80;1.13;;;0.70;99.90;;;;;;6242968;22;20025;-83
2023/04/04 06:17:41;;;;;;;3.97;1.50;;;0.80;99.90;;;;;;6266734;22;20025;-80
2023/04/04 06:20:08;;;;;;;4.32;1.60;;;0.90;99.90;;;;;;6266481;22;20135;-79
2023/04/04 06:22:33;;;;;;;4.90;1.70;;;1.00;99.90;;;;;;6265315;22;20339;-78
2023/04/04 06:24:59;;;;;;;3.40;1.50;;;1.10;99.90;;;;;;6266639;22;20014;-79
2023/04/04 06:27:25;;;;;;;4.40;1.88;;;1.20;99.90;;;;;;6266263;22;20342;-79
2023/04/04 06:29:50;;;;;;;5.00;1.92;;;1.30;99.90;;;;;;6241400;22;20097;-79
2023/04/04 06:32:16;;;;;;;4.55;1.40;;;1.40;99.90;;;;;;6240441;22;20018;-79
2023/04/04 06:34:42;;;;;;;3.90;1.52;;;1.60;99.90;;;;;;6242282;22;20010;-78
2023/04/04 06:37:07;;;;;;;3.75;1.38;;;2.00;99.90;;;;;;6266935;22;20454;-80
2023/04/04 06:39:33;;;;;;;3.97;1.52;;;2.60;99.90;;;;;;6262847;22;20006;-83
2023/04/04 06:42:00;;;;;;;3.63;1.55;;;3.60;99.90;;;;;;6346187;22;20014;-82
2023/04/04 06:44:26;;;;;;;6.82;1.55;;;4.50;99.90;;;;;;6266770;22;20018;-84
2023/04/04 06:46:52;;;;;;;4.95;1.58;;;5.20;99.90;;;;;;6192050;22;20017;-84
2023/04/04 06:49:18;;;;;;;3.17;1.20;;;5.60;99.90;;;;;;6242300;22;20053;-83
2023/04/04 06:51:44;;;;;;;3.23;0.97;;;5.50;99.90;;;;;;6241256;22;20014;-83
2023/04/04 06:54:10;;;;;;;3.60;1.10;;;5.40;99.90;;;;;;6216308;22;20016;-84
2023/04/04 06:56:36;;;;;;;3.63;1.48;;;5.20;99.90;;;;;;6346438;22;20009;-82
2023/04/04 06:59:02;;;;;;;4.13;1.13;;;5.10;99.90;;;;;;6266512;22;20063;-83
2023/04/04 07:01:31;;;;;;;3.47;1.00;;;5.00;99.90;;;;;;6266344;22;20045;-83
2023/04/04 07:03:57;;;;;;;3.10;1.00;;;4.90;99.90;;;;;;6266426;22;20097;-84
2023/04/04 07:06:23;;;;;;;3.33;1.02;;;5.10;99.90;;;;;;6402112;22;20052;-85
2023/04/04 07:08:49;;;;;;;3.43;1.00;;;5.60;99.90;;;;;;6241612;22;20025;-85
2023/04/04 07:11:15;;;;;;;3.67;1.00;;;6.10;99.90;;;;;;6400919;22;20017;-86
2023/04/04 07:13:40;;;;;;;2.07;0.93;;;6.20;99.90;;;;;;6266666;22;20077;-81
2023/04/04 07:16:06;;;;;;;3.03;0.83;;;6.30;99.90;;;;;;6402045;22;20063;-82
2023/04/04 07:18:32;;;;;;;4.10;1.23;;;6.30;99.90;;;;;;6215989;22;20013;-85
2023/04/04 07:20:58;;;;;;;2.80;1.03;;;6.50;99.90;;;;;;6240749;22;20014;-82
2023/04/04 07:23:23;;;;;;;2.55;1.02;;;6.90;99.90;;;;;;6264626;22;20089;-83
2023/04/04 07:25:49;;;;;;;2.67;0.93;;;7.30;99.90;;;;;;6263689;22;20399;-82
2023/04/04 07:28:15;;;;;;;6.03;1.00;;;7.60;99.90;;;;;;6239462;22;20454;-83
2023/04/04 07:30:41;;;;;;;3.23;0.90;;;7.80;99.90;;;;;;6266072;22;20036;-82
2023/04/04 07:33:06;;;;;;;2.60;1.07;;;7.90;99.90;;;;;;6265141;22;20045;-79
2023/04/04 07:35:33;;;;;;;1.50;0.60;;;7.80;99.90;;;;;;6265356;22;20049;-80
2023/04/04 07:37:58;;;;;;;3.28;0.90;;;7.70;99.90;;;;;;6400800;22;20512;-80
2023/04/04 07:40:24;;;;;;;3.43;0.80;;;7.60;99.90;;;;;;6400724;22;20013;-80
2023/04/04 07:42:50;;;;;;;4.57;0.93;;;7.60;99.90;;;;;;6264920;22;20044;-83
2023/04/04 07:45:17;;;;;;;3.03;0.97;;;7.70;99.90;;;;;;6265104;22;20025;-81
2023/04/04 07:47:43;;;;;;;3.17;0.80;;;7.60;99.90;;;;;;6399953;22;20010;-82
2023/04/04 07:50:10;;;;;;;5.32;1.02;;;7.40;99.90;;;;;;6265343;22;20339;-82
2023/04/04 07:52:36;;;;;;;3.58;0.93;;;7.10;99.90;;;;;;6266309;22;20439;-84
2023/04/04 07:55:02;;;;;;;2.40;0.67;;;6.80;99.90;;;;;;6266460;22;20092;-79
2023/04/04 07:57:28;;;;;;;3.10;0.80;;;6.40;99.90;;;;;;6265061;22;20066;-81
2023/04/04 07:59:54;;;;;;;3.80;1.17;;;6.10;99.90;;;;;;6400971;22;20055;-82
2023/04/04 08:02:20;;;;;;;3.10;0.80;;;5.90;99.90;;;;;;6266024;22;20013;-80
2023/04/04 08:04:45;;;;;;;4.63;0.60;;;5.70;99.90;;;;;;6265108;22;20018;-81
2023/04/04 08:07:11;;;;;;;4.73;0.80;;;5.50;99.90;;;;;;6266377;22;20016;-81
2023/04/04 08:09:37;;;;;;;4.87;1.00;;;5.40;99.90;;;;;;6401006;22;20025;-83
2023/04/04 08:12:04;;;;;;;2.87;0.83;;;5.40;99.90;;;;;;6264837;22;20043;-83
2023/04/04 08:14:30;;;;;;;4.57;1.00;;;5.40;99.90;;;;;;6240230;22;20032;-83
2023/04/04 08:16:56;;;;;;;6.30;0.97;;;5.40;99.90;;;;;;6265187;22;20009;-82
2023/04/04 08:19:22;;;;;;;2.85;0.98;;;5.40;99.90;;;;;;6264963;22;20010;-81
2023/04/04 08:21:48;;;;;;;4.90;0.90;;;5.40;99.90;;;;;;6400801;22;20108;-82
2023/04/04 08:24:14;;;;;;;2.47;0.80;;;5.50;99.90;;;;;;6264937;22;20334;-82
2023/04/04 08:26:40;;;;;;;2.07;0.60;;;5.50;99.90;;;;;;6265933;22;20021;-82
2023/04/04 08:29:06;;;;;;;3.70;0.88;;;5.60;99.90;;;;;;6400769;22;20010;-81
2023/04/04 08:31:33;;;;;;;5.47;0.63;;;5.60;99.90;;;;;;6400912;22;20070;-83
2023/04/04 08:34:00;;;;;;;;;;;5.60;99.90;;;;;;6399859;22;20017;-83
2023/04/04 08:36:26;;;;;;;2.75;1.13;;;5.60;99.90;;;;;;6263549;22;19963;-82
2023/04/04 08:38:52;;;;;;;2.13;0.80;;;5.60;99.90;;;;;;6400738;22;20044;-82
2023/04/04 08:41:19;;;;;;;1.67;0.60;;;5.60;99.90;;;;;;6399131;22;20259;-82
2023/04/04 08:43:53;;;;;;;1.88;0.60;;;5.60;99.90;;;;;;6237288;22;20435;-82
2023/04/04 08:46:21;;;;;;;3.58;0.82;;;5.70;99.90;;;;;;6240459;22;20006;-82
2023/04/04 08:48:50;;;;;;;3.15;0.60;;;5.70;99.90;;;;;;6400817;22;20021;-83
2023/04/04 08:51:18;;;;;;;2.42;0.80;;;5.70;99.90;;;;;;6264865;22;20018;-82
2023/04/04 08:53:44;;;;;;;4.57;0.82;;;5.70;99.90;;;;;;6401031;22;20009;-83
2023/04/04 08:56:10;;;;;;;3.63;0.90;;;5.80;99.90;;;;;;6402355;22;20184;-82
2023/04/04 08:58:39;;;;;;;2.05;0.63;;;5.90;99.90;;;;;;6240336;22;20010;-82
2023/04/04 09:01:06;;;;;;;4.47;0.70;;;5.90;99.90;;;;;;6401311;22;20464;-82
2023/04/04 09:03:33;;;;;;;1.85;0.57;;;5.90;99.90;;;;;;6267329;22;20356;-82
2023/04/04 09:06:00;;;;;;;3.78;0.68;;;5.90;99.90;;;;;;6402017;22;20013;-82
2023/04/04 09:08:27;;;;;;;;;;;6.00;99.90;;;;;;6265920;22;20457;-81
2023/04/04 09:10:53;;;;;;;3.20;0.80;;;6.00;99.90;;;;;;6402456;22;20243;-81
2023/04/04 09:13:19;;;;;;;2.95;0.68;;;6.10;99.90;;;;;;6265872;22;20450;-82
2023/04/04 09:15:48;;;;;;;2.80;1.07;;;6.10;99.90;;;;;;6267286;22;20018;-82
2023/04/04 09:18:14;;;;;;;3.33;0.80;;;6.10;99.90;;;;;;6265632;22;20017;-82
2023/04/04 09:20:44;;;;;;;3.60;0.77;;;6.30;99.90;;;;;;6266432;22;20022;-82
2023/04/04 09:23:11;;;;;;;3.80;1.02;;;6.30;99.90;;;;;;6265105;22;20089;-82
2023/04/04 09:25:49;;;;;;;4.45;0.80;;;6.30;99.90;;;;;;6266004;22;20022;-82
2023/04/04 09:28:16;;;;;;;2.90;0.70;;;6.40;99.90;;;;;;6401751;22;20010;-82
2023/04/04 09:30:43;;;;;;;2.47;0.73;;;6.40;99.90;;;;;;6401206;22;20021;-81
2023/04/04 09:33:11;;;;;;;2.58;0.80;;;6.40;99.90;;;;;;6265442;22;20024;-83
2023/04/04 09:35:47;;;;;;;1.63;0.70;;;6.50;99.90;;;;;;6267000;22;20014;-83
2023/04/04 09:38:15;;;;;;;2.33;0.67;;;6.60;99.90;;;;;;6402209;22;20014;-82
2023/04/04 09:40:41;;;;;;;2.10;0.57;;;6.60;99.90;;;;;;6242131;22;20259;-82
2023/04/04 09:43:08;;;;;;;4.75;1.00;;;6.60;99.90;;;;;;6265919;22;20018;-82
2023/04/04 09:45:35;;;;;;;3.13;0.90;;;6.70;99.90;;;;;;6402357;22;20394;-83
2023/04/04 09:48:01;;;;;;;;;;;6.70;99.90;;;;;;6400520;22;20014;-82
2023/04/04 09:50:29;;;;;;;5.22;1.70;;;6.80;99.90;;;;;;6265520;22;19984;-82
2023/04/04 09:52:59;;;;;;;2.47;0.80;;;6.90;99.90;;;;;;6266223;22;20477;-83
2023/04/04 09:55:51;;;;;;;4.53;1.30;;;7.00;99.90;;;;;;6241313;22;20499;-84
2023/04/04 09:58:26;;;;;;;2.65;0.70;;;7.00;99.90;;;;;;6267575;22;20093;-84
2023/04/04 10:00:58;;;;;;;3.05;0.70;;;7.10;99.90;;;;;;6402086;22;20014;-83
2023/04/04 10:03:25;;;;;;;2.70;0.80;;;7.10;99.90;;;;;;6265488;22;20046;-83
2023/04/04 10:05:57;;;;;;;3.63;0.98;;;7.10;99.90;;;;;;6263954;22;20029;-83
2023/04/04 10:08:26;;;;;;;2.65;0.65;;;7.20;99.90;;;;;;6265040;22;20018;-83
2023/04/04 10:11:02;;;;;;;3.05;0.70;;;7.30;99.90;;;;;;6266002;22;20028;-85
2023/04/04 10:13:30;;;;;;;3.33;0.80;;;7.40;99.90;;;;;;6399390;22;20014;-84
2023/04/04 10:15:57;;;;;;;3.80;0.75;;;7.50;99.90;;;;;;6263227;22;20014;-85
2023/04/04 10:18:27;;;;;;;2.75;0.77;;;7.50;99.50;;;;;;6265820;22;20050;-83
2023/04/04 10:20:55;;;;;;;1.98;0.60;;;7.60;99.90;;;;;;6265041;22;20014;-83
2023/04/04 10:23:24;;;;;;;2.70;0.65;;;7.70;99.50;;;;;;6263473;22;20013;-84
2023/04/04 10:25:50;;;;;;;3.83;0.80;;;7.70;98.70;;;;;;6264839;22;20028;-84
2023/04/04 10:28:17;;;;;;;1.40;0.55;;;7.70;98.40;;;;;;6265965;22;20044;-83
2023/04/04 10:30:48;;;;;;;3.35;0.90;;;7.70;98.10;;;;;;6400375;22;20014;-82
2023/04/04 10:33:29;;;;;;;2.17;0.70;;;7.80;98.00;;;;;;6401445;22;20396;-82
2023/04/04 10:36:00;;;;;;;4.28;1.02;;;7.90;98.60;;;;;;6265626;22;20078;-84
2023/04/04 10:38:30;;;;;;;2.92;0.88;;;8.00;97.70;;;;;;6265757;22;20468;-83
2023/04/04 10:40:59;;;;;;;1.95;0.68;;;8.10;96.80;;;;;;6265841;22;20021;-83
2023/04/04 10:43:27;;;;;;;3.90;0.70;;;8.20;96.60;;;;;;6265794;22;20506;-83
2023/04/04 10:45:53;;;;;;;2.58;0.73;;;8.20;96.20;;;;;;6266109;22;20014;-83
2023/04/04 10:48:21;;;;;;;3.95;0.80;;;8.20;96.00;;;;;;6401698;22;20010;-82
2023/04/04 10:50:48;;;;;;;3.15;1.00;;;8.20;95.20;;;;;;6265574;22;20010;-84
2023/04/04 10:53:13;;;;;;;2.70;0.80;;;8.10;94.60;;;;;;6266003;22;20343;-83
2023/04/04 10:55:40;;;;;;;4.17;0.70;;;8.10;94.20;;;;;;6265929;22;20010;-83
2023/04/04 10:58:07;;;;;;;;;;;8.20;94.90;;;;;;6241082;22;20418;-84
2023/04/04 11:00:49;;;;;;;2.13;0.70;;;8.20;95.00;;;;;;6265754;22;19945;-83
2023/04/04 11:03:15;;;;;;;2.03;0.70;;;8.30;94.40;;;;;;6265770;22;20010;-86
2023/04/04 11:05:47;;;;;;;2.60;0.70;;;8.30;94.80;;;;;;6401715;22;20020;-83
2023/04/04 11:08:24;;;;;;;2.88;0.63;;;8.40;94.30;;;;;;6398317;22;20066;-83
2023/04/04 11:10:54;;;;;;;1.95;0.80;;;8.50;94.50;;;;;;6401436;22;20013;-82
2023/04/04 11:13:28;;;;;;;2.20;0.70;;;8.50;93.90;;;;;;6401741;22;20010;-87
2023/04/04 11:16:15;;;;;;;3.33;0.90;;;8.50;93.20;;;;;;6240391;22;20312;-87
2023/04/04 11:18:40;;;;;;;2.22;0.80;;;8.50;93.00;;;;;;6265492;22;20029;-86
2023/04/04 11:21:17;;;;;;;3.40;0.83;;;8.40;91.20;;;;;;6264457;22;20010;-77
2023/04/04 11:23:49;;;;;;;4.67;0.90;;;8.40;91.80;;;;;;6401220;22;20045;-79
2023/04/04 11:26:25;;;;;;;3.50;0.90;;;8.40;92.60;;;;;;6401510;22;20048;-79
2023/04/04 11:28:50;;;;;;;3.22;0.70;;;8.50;92.30;;;;;;6265566;22;20493;-77
2023/04/04 11:31:16;;;;;;;2.13;0.70;;;8.60;92.30;;;;;;6401519;22;20057;-78
2023/04/04 11:34:08;;;;;;;2.57;0.80;;;8.70;92.10;;;;;;6241460;22;20141;-79
2023/04/04 11:36:37;;;;;;;3.75;1.10;;;8.80;92.40;;;;;;6401797;22;20970;-83
2023/04/04 11:39:18;;;;;;;3.30;0.80;;;9.00;92.60;;;;;;6242096;22;20010;-81
2023/04/04 11:41:48;;;;;;;3.38;1.42;;;9.10;92.40;;;;;;6265921;22;20049;-82
2023/04/04 11:44:16;;;;;;;2.38;0.85;;;9.20;91.40;;;;;;6240714;22;20025;-82
2023/04/04 11:46:42;;;;;;;2.88;0.65;;;9.10;91.40;;;;;;6267071;22;20014;-82
2023/04/04 11:49:09;;;;;;;3.17;0.88;;;9.20;91.50;;;;;;6265989;22;20014;-84
2023/04/04 11:51:35;;;;;;;;;;;9.20;90.80;;;;;;6241109;22;20027;-83
2023/04/04 11:54:02;;;;;;;2.53;0.73;;;9.20;86.20;;;;;;6267158;22;19955;-82
2023/04/04 11:56:32;;;;;;;1.42;0.65;;;9.30;91.10;;;;;;6266101;22;20022;-82
2023/04/04 11:58:58;;;;;;;2.95;0.88;;;9.30;90.70;;;;;;6401932;22;20017;-83
2023/04/04 12:01:24;;;;;;;2.10;0.83;;;9.30;87.40;;;;;;6402235;22;20339;-83
2023/04/04 12:03:50;;;;;;;2.03;0.77;;;9.20;87.40;;;;;;6266040;22;20045;-87
2023/04/04 12:06:16;;;;;;;2.78;0.80;;;9.10;87.70;;;;;;6266799;22;20017;-83
2023/04/04 12:08:43;;;;;;;2.22;0.70;;;9.10;88.80;;;;;;6240837;22;20014;-82
2023/04/04 12:11:09;;;;;;;2.63;0.90;;;9.20;88.30;;;;;;6266881;22;20014;-84
2023/04/04 12:13:43;;;;;;;3.33;0.85;;;9.30;89.30;;;;;;6240953;22;20010;-87
2023/04/04 12:16:09;;;;;;;3.40;0.80;;;9.40;88.40;;;;;;6266541;22;20071;-86
2023/04/04 12:18:36;;;;;;;5.90;0.80;;;9.60;89.40;;;;;;6265988;22;20013;-83
2023/04/04 12:21:02;;;;;;;;;;;9.60;88.40;;;;;;6402368;22;20053;-83
2023/04/04 12:23:33;;;;;;;2.95;1.00;;;9.60;87.40;;;;;;6265919;22;19910;-82
2023/04/04 12:26:02;;;;;;;2.92;0.85;;;9.60;87.00;;;;;;6400679;22;20025;-84
2023/04/04 12:28:30;;;;;;;2.13;0.80;;;9.50;85.80;;;;;;6266438;22;20054;-83
2023/04/04 12:30:56;;;;;;;2.60;0.90;;;9.40;86.40;;;;;;6268386;22;20339;-83
2023/04/04 12:33:22;;;;;;;3.43;0.60;;;9.40;84.70;;;;;;6403843;22;20017;-84
2023/04/04 12:35:52;;;;;;;2.57;0.80;;;9.30;85.10;;;;;;6267443;22;20018;-84
2023/04/04 12:38:17;;;;;;;3.80;0.80;;;9.30;85.00;;;;;;6267429;22;20025;-83
2023/04/04 12:40:43;;;;;;;3.60;1.00;;;9.30;82.80;;;;;;6403232;22;20084;-84
2023/04/04 12:43:16;;;;;;;3.15;1.00;;;9.20;83.30;;;;;;6266620;22;20480;-83
2023/04/04 12:45:43;;;;;;;3.08;1.00;;;9.20;84.20;;;;;;6267309;22;20839;-83
2023/04/04 12:48:18;;;;;;;3.92;0.90;;;9.10;80.70;;;;;;6217078;22;20017;-87
2023/04/04 12:50:51;;;;;;;1.48;0.55;;;9.10;80.80;;;;;;6403429;22;20456;-84
2023/04/04 12:53:25;;;;;;;1.98;0.63;;;9.10;78.20;;;;;;6267150;22;20024;-84
2023/04/04 12:55:52;;;;;;;3.55;0.80;;;9.10;82.10;;;;;;6403596;22;20014;-84
2023/04/04 12:58:23;;;;;;;;;;;9.20;82.60;;;;;;6403125;22;20096;-84
2023/04/04 13:00:51;;;;;;;2.15;1.25;;;9.30;79.60;;;;;;6403532;22;19954;-83
2023/04/04 13:03:19;;;;;;;3.35;1.23;;;9.40;79.60;;;;;;6267325;22;20041;-82
2023/04/04 13:05:46;;;;;;;3.08;0.82;;;9.40;79.00;;;;;;6403888;22;20039;-84